sensor_id;sensor_type;location;lat;lon;timestamp;pressure;altitude;pressure_sealevel;temperature;humidity
34177;BME280;20450;49.074;9.158;2022-07-15T00:00:52;99832.41;;;21.13;56.14
34177;BME280;20450;49.074;9.158;2022-07-15T00:03:21;99830.97;;;21.03;57.57
34177;BME280;20450;49.074;9.158;2022-07-15T00:05:50;99834.81;;;21.00;56.23
34177;BME280;20450;49.074;9.158;2022-07-15T00:08:23;99842.28;;;20.97;55.48
34177;BME280;20450;49.074;9.158;2022-07-15T00:10:51;99835.34;;;20.96;55.92
34177;BME280;20450;49.074;9.158;2022-07-15T00:13:20;99833.50;;;20.96;55.87
34177;BME280;20450;49.074;9.158;2022-07-15T00:15:48;99835.03;;;20.91;54.62
34177;BME280;20450;49.074;9.158;2022-07-15T00:18:16;99830.19;;;20.86;55.68
34177;BME280;20450;49.074;9.158;2022-07-15T00:20:44;99841.47;;;20.80;55.83
34177;BME280;20450;49.074;9.158;2022-07-15T00:23:11;99834.22;;;20.74;56.48
34177;BME280;20450;49.074;9.158;2022-07-15T00:25:38;99838.41;;;20.69;55.91
34177;BME280;20450;49.074;9.158;2022-07-15T00:28:07;99838.72;;;20.66;57.87
34177;BME280;20450;49.074;9.158;2022-07-15T00:30:37;99845.03;;;20.65;58.35
34177;BME280;20450;49.074;9.158;2022-07-15T00:33:06;99841.88;;;20.61;57.14
34177;BME280;20450;49.074;9.158;2022-07-15T00:35:35;99838.13;;;20.48;57.96
34177;BME280;20450;49.074;9.158;2022-07-15T00:38:06;99840.50;;;20.27;57.05
34177;BME280;20450;49.074;9.158;2022-07-15T00:40:42;99832.91;;;20.16;55.70
34177;BME280;20450;49.074;9.158;2022-07-15T00:43:09;99834.09;;;20.13;58.16
34177;BME280;20450;49.074;9.158;2022-07-15T00:45:39;99829.78;;;19.80;65.86
34177;BME280;20450;49.074;9.158;2022-07-15T00:48:06;99832.16;;;19.18;70.25
34177;BME280;20450;49.074;9.158;2022-07-15T00:50:35;99834.53;;;18.87;71.52
34177;BME280;20450;49.074;9.158;2022-07-15T00:53:05;99842.56;;;18.70;72.97
34177;BME280;20450;49.074;9.158;2022-07-15T00:55:40;99831.03;;;18.37;73.71
34177;BME280;20450;49.074;9.158;2022-07-15T00:58:14;99838.72;;;18.31;75.63
34177;BME280;20450;49.074;9.158;2022-07-15T01:00:47;99836.38;;;18.28;75.82
34177;BME280;20450;49.074;9.158;2022-07-15T01:03:17;99835.34;;;18.38;75.73
34177;BME280;20450;49.074;9.158;2022-07-15T01:05:47;99830.72;;;18.40;76.25
34177;BME280;20450;49.074;9.158;2022-07-15T01:08:15;99839.19;;;18.52;76.21
34177;BME280;20450;49.074;9.158;2022-07-15T01:10:42;99835.44;;;18.62;76.05
34177;BME280;20450;49.074;9.158;2022-07-15T01:13:09;99832.03;;;18.70;75.95
34177;BME280;20450;49.074;9.158;2022-07-15T01:15:36;99837.78;;;18.65;76.81
34177;BME280;20450;49.074;9.158;2022-07-15T01:18:05;99834.97;;;18.67;77.51
34177;BME280;20450;49.074;9.158;2022-07-15T01:20:40;99826.41;;;18.73;76.61
34177;BME280;20450;49.074;9.158;2022-07-15T01:23:07;99837.16;;;18.79;77.25
34177;BME280;20450;49.074;9.158;2022-07-15T01:25:39;99838.31;;;18.85;76.39
34177;BME280;20450;49.074;9.158;2022-07-15T01:28:10;99840.84;;;18.53;77.32
34177;BME280;20450;49.074;9.158;2022-07-15T01:30:38;99837.94;;;18.13;79.30
34177;BME280;20450;49.074;9.158;2022-07-15T01:33:07;99837.41;;;17.84;79.89
34177;BME280;20450;49.074;9.158;2022-07-15T01:35:34;99834.88;;;17.57;80.91
34177;BME280;20450;49.074;9.158;2022-07-15T01:38:03;99837.00;;;17.53;81.13
34177;BME280;20450;49.074;9.158;2022-07-15T01:40:30;99839.69;;;17.61;81.44
34177;BME280;20450;49.074;9.158;2022-07-15T01:42:57;99840.06;;;17.66;78.28
34177;BME280;20450;49.074;9.158;2022-07-15T01:45:25;99834.50;;;17.52;80.44
34177;BME280;20450;49.074;9.158;2022-07-15T01:47:53;99836.88;;;17.28;80.77
34177;BME280;20450;49.074;9.158;2022-07-15T01:50:39;99837.09;;;17.17;81.30
34177;BME280;20450;49.074;9.158;2022-07-15T01:53:14;99831.16;;;17.15;81.96
34177;BME280;20450;49.074;9.158;2022-07-15T01:55:45;99832.22;;;17.22;81.79
34177;BME280;20450;49.074;9.158;2022-07-15T01:58:14;99841.69;;;17.32;82.41
34177;BME280;20450;49.074;9.158;2022-07-15T02:00:42;99836.38;;;17.42;81.77
34177;BME280;20450;49.074;9.158;2022-07-15T02:03:09;99833.75;;;17.42;81.36
34177;BME280;20450;49.074;9.158;2022-07-15T02:05:37;99836.53;;;17.40;81.14
34177;BME280;20450;49.074;9.158;2022-07-15T02:08:05;99833.31;;;17.37;81.86
34177;BME280;20450;49.074;9.158;2022-07-15T02:10:40;99824.91;;;17.33;82.14
34177;BME280;20450;49.074;9.158;2022-07-15T02:13:14;99827.59;;;17.24;81.19
34177;BME280;20450;49.074;9.158;2022-07-15T02:15:46;99836.72;;;17.12;81.24
34177;BME280;20450;49.074;9.158;2022-07-15T02:18:14;99831.56;;;16.93;82.59
34177;BME280;20450;49.074;9.158;2022-07-15T02:20:41;99830.78;;;16.83;82.71
34177;BME280;20450;49.074;9.158;2022-07-15T02:23:08;99827.19;;;16.84;83.29
34177;BME280;20450;49.074;9.158;2022-07-15T02:25:36;99832.16;;;16.87;82.96
34177;BME280;20450;49.074;9.158;2022-07-15T02:28:06;99831.19;;;16.88;83.32
34177;BME280;20450;49.074;9.158;2022-07-15T02:30:36;99835.66;;;16.78;83.23
34177;BME280;20450;49.074;9.158;2022-07-15T02:33:06;99844.78;;;16.56;83.98
34177;BME280;20450;49.074;9.158;2022-07-15T02:35:35;99842.59;;;16.33;86.40
34177;BME280;20450;49.074;9.158;2022-07-15T02:38:04;99844.44;;;16.23;85.86
34177;BME280;20450;49.074;9.158;2022-07-15T02:40:32;99846.38;;;16.21;84.78
34177;BME280;20450;49.074;9.158;2022-07-15T02:43:00;99841.97;;;16.12;84.19
34177;BME280;20450;49.074;9.158;2022-07-15T02:45:34;99847.22;;;16.12;84.94
34177;BME280;20450;49.074;9.158;2022-07-15T02:48:07;99850.44;;;16.15;85.15
34177;BME280;20450;49.074;9.158;2022-07-15T02:50:41;99854.38;;;16.29;84.92
34177;BME280;20450;49.074;9.158;2022-07-15T02:53:08;99860.75;;;16.45;84.08
34177;BME280;20450;49.074;9.158;2022-07-15T02:55:38;99848.34;;;16.65;83.53
34177;BME280;20450;49.074;9.158;2022-07-15T02:58:06;99856.03;;;16.76;82.27
34177;BME280;20450;49.074;9.158;2022-07-15T03:00:35;99859.22;;;16.79;81.62
34177;BME280;20450;49.074;9.158;2022-07-15T03:03:03;99860.69;;;16.55;84.65
34177;BME280;20450;49.074;9.158;2022-07-15T03:05:33;99862.69;;;16.24;85.95
34177;BME280;20450;49.074;9.158;2022-07-15T03:08:01;99870.06;;;16.11;85.80
34177;BME280;20450;49.074;9.158;2022-07-15T03:10:28;99859.59;;;16.02;86.09
34177;BME280;20450;49.074;9.158;2022-07-15T03:12:55;99864.66;;;16.03;85.47
34177;BME280;20450;49.074;9.158;2022-07-15T03:15:22;99868.81;;;16.06;85.56
34177;BME280;20450;49.074;9.158;2022-07-15T03:17:50;99866.34;;;16.14;85.94
34177;BME280;20450;49.074;9.158;2022-07-15T03:20:17;99875.97;;;16.32;84.82
34177;BME280;20450;49.074;9.158;2022-07-15T03:22:47;99871.84;;;16.39;84.34
34177;BME280;20450;49.074;9.158;2022-07-15T03:25:14;99873.19;;;16.34;85.14
34177;BME280;20450;49.074;9.158;2022-07-15T03:27:41;99869.06;;;16.22;85.00
34177;BME280;20450;49.074;9.158;2022-07-15T03:30:11;99876.41;;;16.18;85.92
34177;BME280;20450;49.074;9.158;2022-07-15T03:32:41;99875.75;;;16.07;85.54
34177;BME280;20450;49.074;9.158;2022-07-15T03:35:10;99876.16;;;16.02;86.32
34177;BME280;20450;49.074;9.158;2022-07-15T03:37:38;99880.03;;;16.08;86.22
34177;BME280;20450;49.074;9.158;2022-07-15T03:40:06;99875.72;;;16.26;85.75
34177;BME280;20450;49.074;9.158;2022-07-15T03:42:36;99871.41;;;16.44;85.13
34177;BME280;20450;49.074;9.158;2022-07-15T03:45:04;99878.53;;;16.61;84.59
34177;BME280;20450;49.074;9.158;2022-07-15T03:47:32;99876.41;;;16.74;83.61
34177;BME280;20450;49.074;9.158;2022-07-15T03:50:01;99879.81;;;16.84;84.01
34177;BME280;20450;49.074;9.158;2022-07-15T03:52:31;99886.94;;;17.01;83.82
34177;BME280;20450;49.074;9.158;2022-07-15T03:54:58;99887.41;;;17.14;83.29
34177;BME280;20450;49.074;9.158;2022-07-15T03:57:26;99886.00;;;17.19;82.03
34177;BME280;20450;49.074;9.158;2022-07-15T03:59:53;99886.78;;;17.29;81.00
34177;BME280;20450;49.074;9.158;2022-07-15T04:02:20;99882.47;;;17.38;80.13
34177;BME280;20450;49.074;9.158;2022-07-15T04:04:47;99885.53;;;17.51;79.78
34177;BME280;20450;49.074;9.158;2022-07-15T04:07:14;99879.75;;;17.65;77.67
34177;BME280;20450;49.074;9.158;2022-07-15T04:09:43;99882.75;;;17.70;74.22
34177;BME280;20450;49.074;9.158;2022-07-15T04:12:10;99892.09;;;17.82;73.15
34177;BME280;20450;49.074;9.158;2022-07-15T04:14:39;99888.31;;;17.84;73.57
34177;BME280;20450;49.074;9.158;2022-07-15T04:17:06;99888.78;;;17.97;75.62
34177;BME280;20450;49.074;9.158;2022-07-15T04:19:35;99885.44;;;18.13;75.78
34177;BME280;20450;49.074;9.158;2022-07-15T04:22:04;99883.81;;;18.20;74.95
34177;BME280;20450;49.074;9.158;2022-07-15T04:24:38;99886.16;;;18.23;74.68
34177;BME280;20450;49.074;9.158;2022-07-15T04:27:09;99877.28;;;18.49;73.79
34177;BME280;20450;49.074;9.158;2022-07-15T04:29:36;99889.91;;;18.97;72.74
34177;BME280;20450;49.074;9.158;2022-07-15T04:32:06;99888.91;;;19.55;70.78
34177;BME280;20450;49.074;9.158;2022-07-15T04:34:37;99886.00;;;20.14;68.10
34177;BME280;20450;49.074;9.158;2022-07-15T04:37:04;99893.34;;;20.67;63.44
34177;BME280;20450;49.074;9.158;2022-07-15T04:39:32;99892.03;;;21.17;60.36
34177;BME280;20450;49.074;9.158;2022-07-15T04:41:59;99900.84;;;21.71;59.14
34177;BME280;20450;49.074;9.158;2022-07-15T04:44:27;99896.28;;;22.39;55.98
34177;BME280;20450;49.074;9.158;2022-07-15T04:46:56;99896.41;;;22.74;54.17
34177;BME280;20450;49.074;9.158;2022-07-15T04:49:29;99903.75;;;22.43;55.27
34177;BME280;20450;49.074;9.158;2022-07-15T04:51:56;99903.19;;;23.20;54.24
34177;BME280;20450;49.074;9.158;2022-07-15T04:54:23;99900.34;;;23.93;51.78
34177;BME280;20450;49.074;9.158;2022-07-15T04:56:50;99908.22;;;24.56;50.81
34177;BME280;20450;49.074;9.158;2022-07-15T04:59:17;99898.28;;;25.05;48.94
34177;BME280;20450;49.074;9.158;2022-07-15T05:01:46;99903.41;;;25.53;47.44
34177;BME280;20450;49.074;9.158;2022-07-15T05:04:18;99908.41;;;25.89;43.65
34177;BME280;20450;49.074;9.158;2022-07-15T05:06:45;99915.25;;;26.37;42.37
34177;BME280;20450;49.074;9.158;2022-07-15T05:09:14;99913.00;;;26.60;44.15
34177;BME280;20450;49.074;9.158;2022-07-15T05:11:41;99919.91;;;27.00;42.94
34177;BME280;20450;49.074;9.158;2022-07-15T05:14:09;99931.38;;;27.20;42.74
34177;BME280;20450;49.074;9.158;2022-07-15T05:16:36;99927.09;;;27.63;41.63
34177;BME280;20450;49.074;9.158;2022-07-15T05:19:07;99923.69;;;27.80;40.97
34177;BME280;20450;49.074;9.158;2022-07-15T05:21:34;99922.03;;;27.86;41.03
34177;BME280;20450;49.074;9.158;2022-07-15T05:24:02;99927.16;;;28.18;40.51
34177;BME280;20450;49.074;9.158;2022-07-15T05:26:49;99922.56;;;28.50;40.02
34177;BME280;20450;49.074;9.158;2022-07-15T05:29:16;99916.66;;;28.84;38.40
34177;BME280;20450;49.074;9.158;2022-07-15T05:31:45;99917.31;;;29.04;38.25
34177;BME280;20450;49.074;9.158;2022-07-15T05:34:14;99926.88;;;28.02;39.74
34177;BME280;20450;49.074;9.158;2022-07-15T05:36:42;99929.34;;;28.52;38.71
34177;BME280;20450;49.074;9.158;2022-07-15T05:39:12;99929.59;;;29.11;37.81
34177;BME280;20450;49.074;9.158;2022-07-15T05:41:40;99923.41;;;29.11;37.05
34177;BME280;20450;49.074;9.158;2022-07-15T05:44:13;99932.75;;;28.84;37.90
34177;BME280;20450;49.074;9.158;2022-07-15T05:46:46;99924.00;;;29.13;37.59
34177;BME280;20450;49.074;9.158;2022-07-15T05:49:15;99928.97;;;29.27;37.19
34177;BME280;20450;49.074;9.158;2022-07-15T05:51:43;99926.72;;;29.90;36.61
34177;BME280;20450;49.074;9.158;2022-07-15T05:54:10;99933.03;;;30.25;35.69
34177;BME280;20450;49.074;9.158;2022-07-15T05:56:38;99938.09;;;30.90;34.41
34177;BME280;20450;49.074;9.158;2022-07-15T05:59:07;99935.53;;;30.95;34.54
34177;BME280;20450;49.074;9.158;2022-07-15T06:01:36;99937.47;;;31.23;34.75
34177;BME280;20450;49.074;9.158;2022-07-15T06:04:03;99942.06;;;30.76;34.91
34177;BME280;20450;49.074;9.158;2022-07-15T06:06:31;99939.59;;;29.70;36.54
34177;BME280;20450;49.074;9.158;2022-07-15T06:08:59;99941.38;;;30.58;35.31
34177;BME280;20450;49.074;9.158;2022-07-15T06:11:26;99949.91;;;31.01;34.52
34177;BME280;20450;49.074;9.158;2022-07-15T06:13:54;99956.47;;;30.93;33.85
34177;BME280;20450;49.074;9.158;2022-07-15T06:16:21;99954.66;;;31.33;33.87
34177;BME280;20450;49.074;9.158;2022-07-15T06:18:48;99954.19;;;31.76;33.53
34177;BME280;20450;49.074;9.158;2022-07-15T06:21:16;99950.66;;;31.36;34.83
34177;BME280;20450;49.074;9.158;2022-07-15T06:23:45;99953.72;;;31.79;33.51
34177;BME280;20450;49.074;9.158;2022-07-15T06:26:12;99955.53;;;31.90;33.18
34177;BME280;20450;49.074;9.158;2022-07-15T06:28:41;99948.38;;;30.36;35.43
34177;BME280;20450;49.074;9.158;2022-07-15T06:31:19;99943.44;;;29.44;37.60
34177;BME280;20450;49.074;9.158;2022-07-15T06:33:46;99951.09;;;30.70;35.73
34177;BME280;20450;49.074;9.158;2022-07-15T06:36:14;99953.59;;;32.02;33.38
34177;BME280;20450;49.074;9.158;2022-07-15T06:38:45;99952.66;;;32.90;31.43
34177;BME280;20450;49.074;9.158;2022-07-15T06:41:12;99956.59;;;32.99;30.69
34177;BME280;20450;49.074;9.158;2022-07-15T06:43:40;99946.88;;;32.32;32.48
34177;BME280;20450;49.074;9.158;2022-07-15T06:46:09;99943.78;;;33.11;30.52
34177;BME280;20450;49.074;9.158;2022-07-15T06:48:39;99941.94;;;33.17;30.68
34177;BME280;20450;49.074;9.158;2022-07-15T06:51:06;99948.09;;;32.91;31.35
34177;BME280;20450;49.074;9.158;2022-07-15T06:53:33;99941.09;;;32.95;31.01
34177;BME280;20450;49.074;9.158;2022-07-15T06:56:02;99949.78;;;33.56;31.00
34177;BME280;20450;49.074;9.158;2022-07-15T06:58:30;99947.22;;;34.24;29.65
34177;BME280;20450;49.074;9.158;2022-07-15T07:00:57;99954.22;;;34.20;29.66
34177;BME280;20450;49.074;9.158;2022-07-15T07:03:25;99950.63;;;34.10;29.61
34177;BME280;20450;49.074;9.158;2022-07-15T07:06:13;99950.94;;;34.18;29.03
34177;BME280;20450;49.074;9.158;2022-07-15T07:08:40;99948.09;;;34.30;28.36
34177;BME280;20450;49.074;9.158;2022-07-15T07:11:09;99955.72;;;34.33;28.88
34177;BME280;20450;49.074;9.158;2022-07-15T07:13:35;99947.28;;;33.76;29.36
34177;BME280;20450;49.074;9.158;2022-07-15T07:16:03;99946.72;;;33.10;30.39
34177;BME280;20450;49.074;9.158;2022-07-15T07:18:31;99943.59;;;33.61;29.14
34177;BME280;20450;49.074;9.158;2022-07-15T07:20:58;99943.09;;;33.21;29.90
34177;BME280;20450;49.074;9.158;2022-07-15T07:23:25;99939.03;;;31.47;31.93
34177;BME280;20450;49.074;9.158;2022-07-15T07:25:52;99927.69;;;29.48;34.49
34177;BME280;20450;49.074;9.158;2022-07-15T07:28:21;99921.56;;;30.18;33.95
34177;BME280;20450;49.074;9.158;2022-07-15T07:30:48;99920.75;;;30.40;33.10
34177;BME280;20450;49.074;9.158;2022-07-15T07:33:16;99923.50;;;30.11;32.41
34177;BME280;20450;49.074;9.158;2022-07-15T07:35:45;99926.13;;;30.40;32.74
34177;BME280;20450;49.074;9.158;2022-07-15T07:38:12;99928.63;;;30.88;31.87
34177;BME280;20450;49.074;9.158;2022-07-15T07:40:39;99923.31;;;31.16;31.55
34177;BME280;20450;49.074;9.158;2022-07-15T07:43:06;99933.47;;;31.37;30.90
34177;BME280;20450;49.074;9.158;2022-07-15T07:45:34;99934.16;;;31.44;29.57
34177;BME280;20450;49.074;9.158;2022-07-15T07:48:02;99935.97;;;31.27;31.51
34177;BME280;20450;49.074;9.158;2022-07-15T07:50:29;99937.03;;;31.26;31.22
34177;BME280;20450;49.074;9.158;2022-07-15T07:52:58;99923.63;;;31.31;31.59
34177;BME280;20450;49.074;9.158;2022-07-15T07:55:25;99926.00;;;31.27;31.27
34177;BME280;20450;49.074;9.158;2022-07-15T07:57:54;99915.91;;;31.34;30.17
34177;BME280;20450;49.074;9.158;2022-07-15T08:00:24;99916.72;;;31.35;30.25
34177;BME280;20450;49.074;9.158;2022-07-15T08:02:54;99917.56;;;31.24;30.22
34177;BME280;20450;49.074;9.158;2022-07-15T08:05:23;99914.91;;;31.01;30.57
34177;BME280;20450;49.074;9.158;2022-07-15T08:07:51;99909.09;;;30.69;30.71
34177;BME280;20450;49.074;9.158;2022-07-15T08:10:32;99913.72;;;30.16;31.85
34177;BME280;20450;49.074;9.158;2022-07-15T08:12:59;99906.94;;;30.25;32.29
34177;BME280;20450;49.074;9.158;2022-07-15T08:15:27;99918.19;;;30.22;32.39
34177;BME280;20450;49.074;9.158;2022-07-15T08:17:56;99910.22;;;30.27;32.13
34177;BME280;20450;49.074;9.158;2022-07-15T08:20:23;99916.66;;;30.38;32.73
34177;BME280;20450;49.074;9.158;2022-07-15T08:22:50;99913.03;;;30.44;30.81
34177;BME280;20450;49.074;9.158;2022-07-15T08:25:17;99913.25;;;30.42;31.05
34177;BME280;20450;49.074;9.158;2022-07-15T08:27:44;99906.97;;;30.37;31.86
34177;BME280;20450;49.074;9.158;2022-07-15T08:30:17;99916.19;;;30.18;30.37
34177;BME280;20450;49.074;9.158;2022-07-15T08:32:44;99906.78;;;30.09;31.05
34177;BME280;20450;49.074;9.158;2022-07-15T08:35:12;99902.19;;;29.57;31.90
34177;BME280;20450;49.074;9.158;2022-07-15T08:37:44;99912.53;;;29.83;31.52
34177;BME280;20450;49.074;9.158;2022-07-15T08:40:12;99906.25;;;29.89;31.09
34177;BME280;20450;49.074;9.158;2022-07-15T08:42:39;99915.03;;;29.55;32.16
34177;BME280;20450;49.074;9.158;2022-07-15T08:45:07;99917.44;;;29.09;32.55
34177;BME280;20450;49.074;9.158;2022-07-15T08:47:37;99914.16;;;29.25;33.05
34177;BME280;20450;49.074;9.158;2022-07-15T08:50:21;99915.66;;;29.21;32.68
34177;BME280;20450;49.074;9.158;2022-07-15T08:52:49;99921.56;;;28.69;33.28
34177;BME280;20450;49.074;9.158;2022-07-15T08:55:16;99919.94;;;28.86;33.30
34177;BME280;20450;49.074;9.158;2022-07-15T08:57:47;99922.28;;;29.00;33.15
34177;BME280;20450;49.074;9.158;2022-07-15T09:00:17;99914.69;;;29.15;33.19
34177;BME280;20450;49.074;9.158;2022-07-15T09:02:44;99919.22;;;29.33;32.12
34177;BME280;20450;49.074;9.158;2022-07-15T09:05:21;99919.00;;;28.56;33.70
34177;BME280;20450;49.074;9.158;2022-07-15T09:07:55;99925.75;;;27.85;35.24
34177;BME280;20450;49.074;9.158;2022-07-15T09:10:26;99912.44;;;28.27;34.14
34177;BME280;20450;49.074;9.158;2022-07-15T09:13:08;99911.03;;;27.06;33.92
34177;BME280;20450;49.074;9.158;2022-07-15T09:15:38;99918.44;;;27.10;35.03
34177;BME280;20450;49.074;9.158;2022-07-15T09:18:10;99922.53;;;27.63;34.98
34177;BME280;20450;49.074;9.158;2022-07-15T09:20:42;99916.03;;;28.15;33.28
34177;BME280;20450;49.074;9.158;2022-07-15T09:23:11;99925.47;;;28.48;33.08
34177;BME280;20450;49.074;9.158;2022-07-15T09:25:41;99918.28;;;28.67;33.08
34177;BME280;20450;49.074;9.158;2022-07-15T09:28:08;99923.88;;;28.83;31.98
34177;BME280;20450;49.074;9.158;2022-07-15T09:30:37;99917.13;;;28.81;31.86
34177;BME280;20450;49.074;9.158;2022-07-15T09:33:08;99922.75;;;28.97;32.08
34177;BME280;20450;49.074;9.158;2022-07-15T09:35:37;99927.47;;;28.28;32.68
34177;BME280;20450;49.074;9.158;2022-07-15T09:38:05;99920.91;;;27.12;33.89
34177;BME280;20450;49.074;9.158;2022-07-15T09:40:32;99911.03;;;25.56;37.67
34177;BME280;20450;49.074;9.158;2022-07-15T09:43:03;99915.66;;;26.47;35.59
34177;BME280;20450;49.074;9.158;2022-07-15T09:45:32;99910.09;;;26.68;35.76
34177;BME280;20450;49.074;9.158;2022-07-15T09:48:06;99921.63;;;27.45;34.02
34177;BME280;20450;49.074;9.158;2022-07-15T09:50:35;99927.75;;;27.96;33.71
34177;BME280;20450;49.074;9.158;2022-07-15T09:53:07;99918.78;;;27.71;34.19
34177;BME280;20450;49.074;9.158;2022-07-15T09:55:37;99925.44;;;27.18;34.01
34177;BME280;20450;49.074;9.158;2022-07-15T09:58:05;99926.84;;;27.14;33.94
34177;BME280;20450;49.074;9.158;2022-07-15T10:00:33;99920.88;;;27.69;32.90
34177;BME280;20450;49.074;9.158;2022-07-15T10:03:01;99921.97;;;28.48;32.76
34177;BME280;20450;49.074;9.158;2022-07-15T10:05:28;99919.88;;;28.50;32.23
34177;BME280;20450;49.074;9.158;2022-07-15T10:07:57;99918.47;;;27.54;33.46
34177;BME280;20450;49.074;9.158;2022-07-15T10:10:30;99919.66;;;27.08;35.23
34177;BME280;20450;49.074;9.158;2022-07-15T10:13:05;99918.44;;;27.98;34.23
34177;BME280;20450;49.074;9.158;2022-07-15T10:15:57;99915.47;;;28.80;33.18
34177;BME280;20450;49.074;9.158;2022-07-15T10:18:53;99921.72;;;29.46;32.45
34177;BME280;20450;49.074;9.158;2022-07-15T10:21:35;99926.78;;;29.72;31.09
34177;BME280;20450;49.074;9.158;2022-07-15T10:24:24;99910.56;;;28.28;32.90
34177;BME280;20450;49.074;9.158;2022-07-15T10:27:19;99916.06;;;28.64;33.23
34177;BME280;20450;49.074;9.158;2022-07-15T10:30:03;99908.94;;;27.65;33.18
34177;BME280;20450;49.074;9.158;2022-07-15T10:35:34;99902.50;;;27.79;34.04
34177;BME280;20450;49.074;9.158;2022-07-15T10:38:20;99898.94;;;28.83;33.28
34177;BME280;20450;49.074;9.158;2022-07-15T10:41:09;99901.44;;;29.50;31.77
34177;BME280;20450;49.074;9.158;2022-07-15T10:43:44;99892.31;;;27.50;34.13
34177;BME280;20450;49.074;9.158;2022-07-15T10:46:22;99890.75;;;27.80;33.14
34177;BME280;20450;49.074;9.158;2022-07-15T10:51:54;99893.44;;;27.36;34.38
34177;BME280;20450;49.074;9.158;2022-07-15T10:54:50;99880.72;;;26.09;36.27
34177;BME280;20450;49.074;9.158;2022-07-15T10:57:50;99872.97;;;25.28;37.22
34177;BME280;20450;49.074;9.158;2022-07-15T11:00:31;99869.47;;;27.03;35.75
34177;BME280;20450;49.074;9.158;2022-07-15T11:03:07;99874.38;;;28.19;33.05
34177;BME280;20450;49.074;9.158;2022-07-15T11:05:59;99873.50;;;29.21;32.10
34177;BME280;20450;49.074;9.158;2022-07-15T11:08:52;99870.56;;;30.23;30.02
34177;BME280;20450;49.074;9.158;2022-07-15T11:11:45;99860.84;;;30.91;29.88
34177;BME280;20450;49.074;9.158;2022-07-15T11:14:43;99863.28;;;31.88;28.72
34177;BME280;20450;49.074;9.158;2022-07-15T11:17:21;99855.56;;;32.79;26.85
34177;BME280;20450;49.074;9.158;2022-07-15T11:19:54;99862.50;;;32.75;27.68
34177;BME280;20450;49.074;9.158;2022-07-15T11:22:24;99846.41;;;33.01;26.21
34177;BME280;20450;49.074;9.158;2022-07-15T11:24:54;99857.16;;;33.44;25.74
34177;BME280;20450;49.074;9.158;2022-07-15T11:27:23;99856.16;;;34.03;25.05
34177;BME280;20450;49.074;9.158;2022-07-15T11:29:53;99842.66;;;34.08;25.28
34177;BME280;20450;49.074;9.158;2022-07-15T11:32:25;99850.47;;;33.25;25.76
34177;BME280;20450;49.074;9.158;2022-07-15T11:34:56;99848.69;;;31.84;28.26
34177;BME280;20450;49.074;9.158;2022-07-15T11:37:24;99849.25;;;31.58;28.00
34177;BME280;20450;49.074;9.158;2022-07-15T11:40:15;99843.78;;;32.14;27.37
34177;BME280;20450;49.074;9.158;2022-07-15T11:42:43;99847.69;;;32.39;27.11
34177;BME280;20450;49.074;9.158;2022-07-15T11:45:10;99851.88;;;32.30;27.21
34177;BME280;20450;49.074;9.158;2022-07-15T11:47:52;99835.38;;;31.94;27.50
34177;BME280;20450;49.074;9.158;2022-07-15T11:50:19;99841.34;;;31.96;26.61
34177;BME280;20450;49.074;9.158;2022-07-15T11:52:46;99839.28;;;32.74;26.41
34177;BME280;20450;49.074;9.158;2022-07-15T11:55:18;99830.56;;;33.10;26.29
34177;BME280;20450;49.074;9.158;2022-07-15T11:57:46;99827.44;;;32.04;26.89
34177;BME280;20450;49.074;9.158;2022-07-15T12:00:14;99829.22;;;32.48;26.75
34177;BME280;20450;49.074;9.158;2022-07-15T12:02:41;99829.66;;;32.40;26.89
34177;BME280;20450;49.074;9.158;2022-07-15T12:05:10;99838.84;;;32.44;26.69
34177;BME280;20450;49.074;9.158;2022-07-15T12:07:41;99835.88;;;32.62;26.52
34177;BME280;20450;49.074;9.158;2022-07-15T12:10:11;99842.84;;;32.58;27.24
34177;BME280;20450;49.074;9.158;2022-07-15T12:12:41;99830.84;;;32.49;26.71
34177;BME280;20450;49.074;9.158;2022-07-15T12:15:18;99827.56;;;32.25;27.14
34177;BME280;20450;49.074;9.158;2022-07-15T12:17:46;99827.44;;;32.58;26.55
34177;BME280;20450;49.074;9.158;2022-07-15T12:20:16;99815.75;;;32.15;26.65
34177;BME280;20450;49.074;9.158;2022-07-15T12:23:07;99812.19;;;29.48;30.57
34177;BME280;20450;49.074;9.158;2022-07-15T12:25:35;99822.19;;;30.69;30.81
34177;BME280;20450;49.074;9.158;2022-07-15T12:28:02;99827.25;;;30.93;29.09
34177;BME280;20450;49.074;9.158;2022-07-15T12:30:31;99827.31;;;31.21;30.05
34177;BME280;20450;49.074;9.158;2022-07-15T12:33:13;99825.97;;;30.96;28.81
34177;BME280;20450;49.074;9.158;2022-07-15T12:35:43;99829.50;;;30.62;29.47
34177;BME280;20450;49.074;9.158;2022-07-15T12:38:25;99821.72;;;30.26;29.57
34177;BME280;20450;49.074;9.158;2022-07-15T12:40:53;99820.91;;;30.37;29.68
34177;BME280;20450;49.074;9.158;2022-07-15T12:43:46;99816.66;;;30.52;29.50
34177;BME280;20450;49.074;9.158;2022-07-15T12:46:16;99808.03;;;30.50;29.20
34177;BME280;20450;49.074;9.158;2022-07-15T12:48:44;99807.59;;;30.19;29.38
34177;BME280;20450;49.074;9.158;2022-07-15T12:51:14;99811.19;;;30.24;30.52
34177;BME280;20450;49.074;9.158;2022-07-15T12:53:42;99819.50;;;30.23;30.25
34177;BME280;20450;49.074;9.158;2022-07-15T12:56:10;99818.44;;;30.01;30.19
34177;BME280;20450;49.074;9.158;2022-07-15T12:58:37;99812.91;;;29.84;30.62
34177;BME280;20450;49.074;9.158;2022-07-15T13:01:07;99817.00;;;29.87;30.91
34177;BME280;20450;49.074;9.158;2022-07-15T13:03:36;99810.09;;;29.79;30.55
34177;BME280;20450;49.074;9.158;2022-07-15T13:06:03;99806.94;;;29.12;31.60
34177;BME280;20450;49.074;9.158;2022-07-15T13:08:33;99815.38;;;29.15;31.27
34177;BME280;20450;49.074;9.158;2022-07-15T13:11:05;99813.25;;;29.35;31.01
34177;BME280;20450;49.074;9.158;2022-07-15T13:13:36;99815.53;;;29.32;31.31
34177;BME280;20450;49.074;9.158;2022-07-15T13:16:05;99817.28;;;29.26;31.43
34177;BME280;20450;49.074;9.158;2022-07-15T13:18:34;99806.88;;;29.18;32.06
34177;BME280;20450;49.074;9.158;2022-07-15T13:21:02;99809.13;;;29.03;31.99
34177;BME280;20450;49.074;9.158;2022-07-15T13:23:31;99810.31;;;28.89;31.48